Terminal Aerodrome Forecast
Issued by NWS Topeka, KS

Home | Current Version | Previous Version | Graphics & Text | Print | Product List | Glossary On
Versions: 1 2 3 4 5 6 7 8 9 10 11 12 13 14 15 16 17 18 19 20 21 22 23
000
FTUS43 KTOP 310955 AAB
TAFTOP
TAF AMD
KTOP 310955Z 3110/0106 00000KT 3SM BR FEW030
      TEMPO 3110/3113 1SM MIFG BR SCT004
     FM311500 16007KT P6SM FEW030=

USA.gov is the U.S. government's official web portal to all federal, state and local government web resources and services.